createdAt,value
2023-02-11T00:00:49.811Z,1017.6
2023-02-11T00:01:50.512Z,1017.6
2023-02-11T00:02:51.480Z,1017.5
2023-02-11T00:03:52.431Z,1017.5
2023-02-11T00:04:53.449Z,1017.5
2023-02-11T00:05:54.491Z,1017.5
2023-02-11T00:06:55.412Z,1017.5
2023-02-11T00:07:56.432Z,1016.6
2023-02-11T00:08:57.542Z,1017.2
2023-02-11T00:09:58.480Z,1017.4
2023-02-11T00:10:59.452Z,1017.4
2023-02-11T00:12:00.431Z,1017.3
2023-02-11T00:13:01.473Z,1017.4
2023-02-11T00:14:02.491Z,1017.4
2023-02-11T00:15:03.515Z,1017.3
2023-02-11T00:16:04.597Z,1017.4
2023-02-11T00:17:05.494Z,1017.3
2023-02-11T00:18:06.541Z,1017.1
2023-02-11T00:19:07.519Z,1017.2
2023-02-11T00:20:08.510Z,1017.3
2023-02-11T00:21:09.571Z,1017.2
2023-02-11T00:22:10.617Z,1017.3
2023-02-11T00:23:11.491Z,1017.3
2023-02-11T00:24:12.510Z,1017.2
2023-02-11T00:25:13.551Z,1017.2
2023-02-11T00:26:14.501Z,1017.3
2023-02-11T00:27:15.481Z,1017.3
2023-02-11T00:28:16.582Z,1017.2
2023-02-11T00:29:17.570Z,1017.2
2023-02-11T00:30:18.524Z,1017.3
2023-02-11T00:31:19.635Z,1017.2
2023-02-11T00:32:20.493Z,1017.3
2023-02-11T00:33:21.492Z,1017.3
2023-02-11T00:34:22.423Z,1017.2
2023-02-11T00:35:23.489Z,1017.1
2023-02-11T00:36:24.496Z,1017.1
2023-02-11T00:37:25.476Z,1017.1
2023-02-11T00:38:26.546Z,1016.3
2023-02-11T00:39:27.545Z,1016.8
2023-02-11T00:40:28.471Z,1017
2023-02-11T00:41:29.465Z,1017.1
2023-02-11T00:42:30.446Z,1017.1
2023-02-11T00:43:31.484Z,1017.1
2023-02-11T00:44:32.519Z,1017.1
2023-02-11T00:45:33.578Z,1017.1
2023-02-11T00:46:34.564Z,1017.1
2023-02-11T00:47:35.538Z,1017.1
2023-02-11T00:48:36.526Z,1017.1
2023-02-11T00:49:37.525Z,1017.1
2023-02-11T00:50:38.464Z,1017
2023-02-11T00:51:39.564Z,1017
2023-02-11T00:52:40.560Z,1017
2023-02-11T00:53:41.566Z,1017
2023-02-11T00:54:42.523Z,1017
2023-02-11T00:55:43.514Z,1017
2023-02-11T00:56:44.503Z,1016.9
2023-02-11T00:57:45.534Z,1017
2023-02-11T00:58:46.551Z,1017
2023-02-11T00:59:47.515Z,1017
2023-02-11T01:00:48.543Z,1017
2023-02-11T01:01:49.625Z,1016.9
2023-02-11T01:02:50.548Z,1016.9
2023-02-11T01:03:51.545Z,1016.8
2023-02-11T01:04:52.542Z,1016.9
2023-02-11T01:05:53.527Z,1016.9
2023-02-11T01:06:54.446Z,1016.8
2023-02-11T01:07:55.526Z,1016.9
2023-02-11T01:08:56.600Z,1016.9
2023-02-11T01:09:57.550Z,1016.8
2023-02-11T01:10:58.547Z,1016.8
2023-02-11T01:11:59.568Z,1016.7
2023-02-11T01:13:00.588Z,1016.8
2023-02-11T01:14:01.528Z,1016.8
2023-02-11T01:15:02.568Z,1016.8
2023-02-11T01:16:03.560Z,1016.8
2023-02-11T01:17:04.551Z,1016.8
2023-02-11T01:18:05.559Z,1016.7
2023-02-11T01:19:06.590Z,1016.7
2023-02-11T01:20:07.569Z,1016.7
2023-02-11T01:21:08.601Z,1016.6
2023-02-11T01:22:09.572Z,1016.6
2023-02-11T01:23:10.531Z,1016.6
2023-02-11T01:24:11.590Z,1016.5
2023-02-11T01:25:12.575Z,1016.5
2023-02-11T01:26:13.489Z,1016.4
2023-02-11T01:27:14.533Z,1016.5
2023-02-11T01:28:15.562Z,1016.5
2023-02-11T01:29:16.530Z,1016.5
2023-02-11T01:30:17.509Z,1016.5
2023-02-11T01:31:18.710Z,1016.5
2023-02-11T01:32:19.578Z,1016.5
2023-02-11T01:33:20.641Z,1016.5
2023-02-11T01:34:21.549Z,1016.5
2023-02-11T01:35:22.560Z,1016.4
2023-02-11T01:36:23.525Z,1016.4
2023-02-11T01:37:24.571Z,1016.4
2023-02-11T01:38:25.578Z,1016.4
2023-02-11T01:39:26.593Z,1016.4
2023-02-11T01:40:27.599Z,1016.3
2023-02-11T01:41:28.690Z,1016.3
2023-02-11T01:42:29.590Z,1016.2
2023-02-11T01:43:30.575Z,1016.2
2023-02-11T01:44:31.501Z,1016.3
2023-02-11T01:45:32.511Z,1016.2
2023-02-11T01:46:33.634Z,1016.1
2023-02-11T01:47:34.533Z,1016.1
2023-02-11T01:48:35.635Z,1016.1
2023-02-11T01:49:36.671Z,1016
2023-02-11T01:50:37.530Z,1016
2023-02-11T01:51:38.551Z,1016
2023-02-11T01:52:39.567Z,1016
2023-02-11T01:53:40.551Z,1015.9
2023-02-11T01:54:41.582Z,1016
2023-02-11T01:55:42.589Z,1016
2023-02-11T01:56:43.543Z,1016
2023-02-11T01:57:44.552Z,1015.9
2023-02-11T01:58:45.570Z,1015.9
2023-02-11T01:59:46.572Z,1015.9
2023-02-11T02:00:47.602Z,1015.9
2023-02-11T02:01:48.564Z,1015.9
2023-02-11T02:02:49.554Z,1015.9
2023-02-11T02:05:54.725Z,1015.8
2023-02-11T02:06:55.511Z,1015.8
2023-02-11T02:07:56.550Z,1015.8
2023-02-11T02:08:57.560Z,1015.8
2023-02-11T02:09:58.561Z,1015.8
2023-02-11T02:10:59.519Z,1015.8
2023-02-11T02:12:00.578Z,1015.8
2023-02-11T02:13:01.564Z,1015.8
2023-02-11T02:14:02.521Z,1015.8
2023-02-11T02:15:03.564Z,1015.8
2023-02-11T02:16:04.663Z,1015.8
2023-02-11T02:17:05.536Z,1015.8
2023-02-11T02:18:06.538Z,1015.7
2023-02-11T02:19:07.555Z,1015.7
2023-02-11T02:20:08.515Z,1015.6
2023-02-11T02:21:09.519Z,1015.7
2023-02-11T02:22:10.512Z,1015.6
2023-02-11T02:23:11.523Z,1015.6
2023-02-11T02:24:14.143Z,1015.5
2023-02-11T02:25:13.528Z,1015.5
2023-02-11T02:26:14.504Z,1015.5
2023-02-11T02:27:15.581Z,1015.5
2023-02-11T02:28:16.550Z,1015.5
2023-02-11T02:29:17.521Z,1015.4
2023-02-11T02:30:18.493Z,1015.5
2023-02-11T02:31:19.546Z,1015.4
2023-02-11T02:32:20.572Z,1015.4
2023-02-11T02:33:22.571Z,1015.4
2023-02-11T02:34:22.511Z,1015.4
2023-02-11T02:35:23.541Z,1015.4
2023-02-11T02:36:24.558Z,1015.4
2023-02-11T02:37:25.536Z,1015.4
2023-02-11T02:38:26.573Z,1015.3
2023-02-11T02:39:27.591Z,1015.4
2023-02-11T02:40:28.573Z,1015.4
2023-02-11T02:41:29.531Z,1015.4
2023-02-11T02:42:30.591Z,1015.3
2023-02-11T02:43:31.552Z,1015.3
2023-02-11T02:44:32.573Z,1015.3
2023-02-11T02:45:33.576Z,1015.3
2023-02-11T02:46:34.587Z,1015.3
2023-02-11T02:47:35.558Z,1015.3
2023-02-11T02:48:36.557Z,1015.3
2023-02-11T02:49:37.563Z,1015.3
2023-02-11T02:50:38.595Z,1015.3
2023-02-11T02:51:39.628Z,1015.2
2023-02-11T02:52:40.535Z,1015.2
2023-02-11T02:53:41.560Z,1015.2
2023-02-11T02:54:42.627Z,1015.1
2023-02-11T02:55:43.575Z,1015.1
2023-02-11T02:56:44.656Z,1015.1
2023-02-11T02:57:45.608Z,1015.1
2023-02-11T02:58:47.330Z,1015.2
2023-02-11T02:59:47.540Z,1015.1
2023-02-11T03:00:48.668Z,1015.1
2023-02-11T03:01:49.555Z,1015.1
2023-02-11T03:02:50.615Z,1015.1
2023-02-11T03:03:51.761Z,1015.1
2023-02-11T03:04:52.559Z,1015
2023-02-11T03:05:53.784Z,1015.1
2023-02-11T03:06:54.557Z,1015
2023-02-11T03:07:55.621Z,1015
2023-02-11T03:08:56.610Z,1014.9
2023-02-11T03:09:57.624Z,1014.8
2023-02-11T03:10:58.549Z,1014.9
2023-02-11T03:11:59.616Z,1014.8
2023-02-11T03:13:00.695Z,1014.8
2023-02-11T03:14:01.559Z,1014.9
2023-02-11T03:15:02.625Z,1014.9
2023-02-11T03:16:03.616Z,1015
2023-02-11T03:17:04.655Z,1014.9
2023-02-11T03:18:05.583Z,1014.9
2023-02-11T03:19:06.564Z,1014.9
2023-02-11T03:20:07.582Z,1014.9
2023-02-11T03:21:08.578Z,1014.8
2023-02-11T03:22:09.641Z,1014.8
2023-02-11T03:23:10.576Z,1014.9
2023-02-11T03:24:11.611Z,1014.9
2023-02-11T03:25:12.577Z,1014.9
2023-02-11T03:26:13.612Z,1015
2023-02-11T03:27:14.622Z,1015
2023-02-11T03:28:15.569Z,1014.9
2023-02-11T03:29:16.577Z,1014.9
2023-02-11T03:30:17.649Z,1014.9
2023-02-11T03:31:18.717Z,1014.9
2023-02-11T03:32:19.637Z,1015
2023-02-11T03:33:20.577Z,1014.9
2023-02-11T03:34:21.576Z,1014.9
2023-02-11T03:35:22.596Z,1014.9
2023-02-11T03:36:23.610Z,1014.9
2023-02-11T03:37:24.603Z,1015
2023-02-11T03:38:25.557Z,1015
2023-02-11T03:39:26.582Z,1015
2023-02-11T03:40:27.636Z,1014.9
2023-02-11T03:41:28.597Z,1015
2023-02-11T03:42:29.576Z,1015
2023-02-11T03:43:30.563Z,1015
2023-02-11T03:44:31.584Z,1014.9
2023-02-11T03:45:32.662Z,1014.9
2023-02-11T03:46:33.539Z,1014.9
2023-02-11T03:47:34.624Z,1014.9
2023-02-11T03:48:35.627Z,1014.9
2023-02-11T03:49:36.580Z,1014.9
2023-02-11T03:50:37.615Z,1014.9
2023-02-11T03:51:38.602Z,1014.9
2023-02-11T03:52:39.583Z,1014.9
2023-02-11T03:53:40.596Z,1014.9
2023-02-11T03:54:41.577Z,1014.9
2023-02-11T03:55:42.665Z,1014.9
2023-02-11T03:56:43.580Z,1014.8
2023-02-11T03:57:44.578Z,1014.8
2023-02-11T03:58:45.659Z,1014.8
2023-02-11T03:59:46.559Z,1014.9
2023-02-11T04:00:47.647Z,1014.8
2023-02-11T04:01:48.657Z,1014.8
2023-02-11T04:02:49.783Z,1014.8
2023-02-11T04:03:50.616Z,1014.8
2023-02-11T04:04:51.608Z,1014.7
2023-02-11T04:05:52.772Z,1014.7
2023-02-11T04:06:53.599Z,1014.6
2023-02-11T04:07:54.621Z,1014.6
2023-02-11T04:08:55.617Z,1014.6
2023-02-11T04:09:56.622Z,1014.7
2023-02-11T04:10:57.643Z,1014.6
2023-02-11T04:11:58.649Z,1014.6
2023-02-11T04:12:59.596Z,1014.6
2023-02-11T04:14:00.704Z,1014.6
2023-02-11T04:15:01.607Z,1014.5
2023-02-11T04:16:02.637Z,1014.5
2023-02-11T04:17:03.618Z,1014.5
2023-02-11T04:18:04.578Z,1014.5
2023-02-11T04:19:05.677Z,1014.5
2023-02-11T04:20:07.597Z,1014.4
2023-02-11T04:21:08.605Z,1014.4
2023-02-11T04:22:09.657Z,1014.4
2023-02-11T04:23:10.660Z,1014.4
2023-02-11T04:24:11.649Z,1014.4
2023-02-11T04:25:12.617Z,1014.4
2023-02-11T04:26:13.636Z,1014.3
2023-02-11T04:27:14.616Z,1014.3
2023-02-11T04:28:15.631Z,1014.2
2023-02-11T04:29:16.621Z,1014.3
2023-02-11T04:30:17.609Z,1014.2
2023-02-11T04:31:18.645Z,1014.2
2023-02-11T04:32:19.598Z,1014.2
2023-02-11T04:33:20.642Z,1014.2
2023-02-11T04:34:21.639Z,1014.2
2023-02-11T04:35:22.617Z,1014.2
2023-02-11T04:36:23.617Z,1014.1
2023-02-11T04:37:24.657Z,1014.1
2023-02-11T04:38:25.615Z,1014.1
2023-02-11T04:39:26.618Z,1014.1
2023-02-11T04:40:27.586Z,1014.1
2023-02-11T04:41:28.599Z,1014
2023-02-11T04:42:29.599Z,1014
2023-02-11T04:43:30.657Z,1014.1
2023-02-11T04:44:31.618Z,1014.2
2023-02-11T04:45:32.621Z,1014.1
2023-02-11T04:46:33.538Z,1014.2
2023-02-11T04:47:34.618Z,1013.5
2023-02-11T04:48:35.619Z,1014
2023-02-11T04:49:36.662Z,1014.1
2023-02-11T04:50:37.618Z,1014.1
2023-02-11T04:51:38.620Z,1014.1
2023-02-11T04:52:39.626Z,1014.2
2023-02-11T04:53:40.661Z,1014.1
2023-02-11T04:54:41.698Z,1014.2
2023-02-11T04:55:42.631Z,1014.1
2023-02-11T04:56:43.622Z,1014.1
2023-02-11T04:57:44.606Z,1014.2
2023-02-11T04:58:45.619Z,1014.1
2023-02-11T04:59:46.660Z,1014.2
2023-02-11T05:00:47.656Z,1014
2023-02-11T05:01:48.580Z,1014.1
2023-02-11T05:02:49.645Z,1014.1
2023-02-11T05:03:50.770Z,1014.1
2023-02-11T05:04:51.647Z,1014.1
2023-02-11T05:05:52.960Z,1014.1
2023-02-11T05:06:53.626Z,1014.1
2023-02-11T05:07:54.620Z,1014.1
2023-02-11T05:08:55.714Z,1014
2023-02-11T05:09:56.677Z,1014
2023-02-11T05:10:57.718Z,1014
2023-02-11T05:11:58.636Z,1014
2023-02-11T05:12:59.629Z,1014
2023-02-11T05:14:00.697Z,1014
2023-02-11T05:15:01.689Z,1014
2023-02-11T05:16:02.660Z,1013.9
2023-02-11T05:17:03.748Z,1013.9
2023-02-11T05:18:04.637Z,1013.8
2023-02-11T05:19:05.748Z,1013.8
2023-02-11T05:20:06.721Z,1013
2023-02-11T05:21:07.680Z,1013.5
2023-02-11T05:22:08.638Z,1013.6
2023-02-11T05:23:09.636Z,1013.7
2023-02-11T05:24:10.680Z,1013.6
2023-02-11T05:25:11.677Z,1012.8
2023-02-11T05:26:12.638Z,1013.5
2023-02-11T05:27:13.618Z,1013.6
2023-02-11T05:28:14.691Z,1013.7
2023-02-11T05:29:15.623Z,1013.8
2023-02-11T05:30:16.656Z,1013.7
2023-02-11T05:31:17.702Z,1013.7
2023-02-11T05:32:18.670Z,1013.7
2023-02-11T05:33:19.657Z,1013.7
2023-02-11T05:34:20.660Z,1013.7
2023-02-11T05:35:21.678Z,1013.7
2023-02-11T05:36:22.679Z,1013.7
2023-02-11T05:37:23.883Z,1013.6
2023-02-11T05:38:24.796Z,1013.6
2023-02-11T05:39:25.659Z,1013.7
2023-02-11T05:40:26.642Z,1013.6
2023-02-11T05:41:27.652Z,1013.6
2023-02-11T05:42:28.657Z,1013.6
2023-02-11T05:43:29.636Z,1013.6
2023-02-11T05:44:30.625Z,1013.7
2023-02-11T05:45:31.739Z,1013.7
2023-02-11T05:46:32.743Z,1013.6
2023-02-11T05:47:33.597Z,1013.6
2023-02-11T05:48:34.656Z,1013.6
2023-02-11T05:49:35.640Z,1013.7
2023-02-11T05:50:36.696Z,1013.6
2023-02-11T05:51:37.676Z,1013.6
2023-02-11T05:52:38.618Z,1013.6
2023-02-11T05:53:39.678Z,1013.7
2023-02-11T05:54:40.696Z,1013.6
2023-02-11T05:55:41.697Z,1013.6
2023-02-11T05:56:44.769Z,1013.6
2023-02-11T05:57:43.738Z,1013.6
2023-02-11T05:58:44.593Z,1013.6
2023-02-11T05:59:45.765Z,1013.7
2023-02-11T06:00:46.670Z,1013.7
2023-02-11T06:01:47.677Z,1013.6
2023-02-11T06:02:48.798Z,1013.5
2023-02-11T06:03:49.727Z,1013.6
2023-02-11T06:04:50.716Z,1013.5
2023-02-11T06:05:52.035Z,1013.6
2023-02-11T06:06:52.655Z,1013.6
2023-02-11T06:07:53.636Z,1013.5
2023-02-11T06:08:54.679Z,1013.5
2023-02-11T06:09:55.712Z,1013.5
2023-02-11T06:10:56.657Z,1013.4
2023-02-11T06:11:57.657Z,1013.4
2023-02-11T06:12:58.659Z,1013.5
2023-02-11T06:13:59.659Z,1013.5
2023-02-11T06:15:00.701Z,1013.5
2023-02-11T06:16:01.808Z,1013.5
2023-02-11T06:17:02.658Z,1013
2023-02-11T06:18:03.636Z,1013.3
2023-02-11T06:19:04.638Z,1013.4
2023-02-11T06:20:05.654Z,1013.4
2023-02-11T06:21:06.759Z,1013.4
2023-02-11T06:22:07.796Z,1013.4
2023-02-11T06:23:08.651Z,1013.4
2023-02-11T06:24:09.635Z,1013.5
2023-02-11T06:25:10.702Z,1013.5
2023-02-11T06:26:11.656Z,1013.5
2023-02-11T06:27:12.727Z,1012.6
2023-02-11T06:28:13.649Z,1013.2
2023-02-11T06:29:14.640Z,1013.4
2023-02-11T06:30:15.718Z,1013.5
2023-02-11T06:31:16.782Z,1013.5
2023-02-11T06:32:37.230Z,1013.5
2023-02-11T06:33:18.705Z,1013.4
2023-02-11T06:34:19.693Z,1013.4
2023-02-11T06:35:20.684Z,1013.4
2023-02-11T06:36:21.691Z,1013.5
2023-02-11T06:37:22.683Z,1013.5
2023-02-11T06:38:23.717Z,1013.5
2023-02-11T06:39:24.858Z,1013.5
2023-02-11T06:40:25.687Z,1013.5
2023-02-11T06:41:26.678Z,1013.6
2023-02-11T06:42:27.633Z,1013.5
2023-02-11T06:43:28.661Z,1013.5
2023-02-11T06:44:29.610Z,1013.4
2023-02-11T06:45:30.684Z,1013.4
2023-02-11T06:46:31.680Z,1013.4
2023-02-11T06:47:32.652Z,1013.4
2023-02-11T06:48:33.718Z,1013.4
2023-02-11T06:49:34.642Z,1013.1
2023-02-11T06:50:35.662Z,1013.3
2023-02-11T06:51:36.642Z,1013.4
2023-02-11T06:52:37.678Z,1013.4
2023-02-11T06:53:38.760Z,1013.3
2023-02-11T06:54:39.726Z,1013.4
2023-02-11T06:55:40.701Z,1013.4
2023-02-11T06:56:41.680Z,1013.4
2023-02-11T06:57:42.718Z,1013.4
2023-02-11T06:58:43.685Z,1013.4
2023-02-11T06:59:44.658Z,1013.4
2023-02-11T07:00:45.698Z,1013.4
2023-02-11T07:01:46.762Z,1013.4
2023-02-11T07:02:47.734Z,1013.4
2023-02-11T07:03:48.680Z,1013.3
2023-02-11T07:04:49.659Z,1013.4
2023-02-11T07:05:50.945Z,1013.4
2023-02-11T07:06:51.699Z,1013.4
2023-02-11T07:07:52.678Z,1013.3
2023-02-11T07:08:53.679Z,1013.4
2023-02-11T07:09:54.658Z,1013.3
2023-02-11T07:10:55.701Z,1013.2
2023-02-11T07:11:56.678Z,1013.2
2023-02-11T07:12:58.815Z,1013.1
2023-02-11T07:13:58.722Z,1013
2023-02-11T07:14:59.718Z,1013.1
2023-02-11T07:16:00.656Z,1013
2023-02-11T07:17:01.678Z,1013.1
2023-02-11T07:18:02.719Z,1013.1
2023-02-11T07:19:03.636Z,1013.1
2023-02-11T07:20:04.659Z,1013.1
2023-02-11T07:21:05.710Z,1013.1
2023-02-11T07:22:06.659Z,1013.1
2023-02-11T07:23:07.658Z,1013.1
2023-02-11T07:24:10.856Z,1013.1
2023-02-11T07:25:09.652Z,1013.1
2023-02-11T07:26:10.713Z,1013.2
2023-02-11T07:27:11.682Z,1013.2
2023-02-11T07:28:12.704Z,1013.2
2023-02-11T07:29:13.679Z,1013.2
2023-02-11T07:30:14.720Z,1013.1
2023-02-11T07:31:15.714Z,1013.1
2023-02-11T07:32:16.727Z,1013.1
2023-02-11T07:33:17.718Z,1013
2023-02-11T07:34:18.773Z,1013
2023-02-11T07:35:19.641Z,1013
2023-02-11T07:36:20.663Z,1013
2023-02-11T07:37:21.639Z,1013
2023-02-11T07:38:22.676Z,1013.1
2023-02-11T07:39:23.636Z,1013.1
2023-02-11T07:40:24.895Z,1013.1
2023-02-11T07:41:25.665Z,1013.1
2023-02-11T07:42:26.741Z,1013.2
2023-02-11T07:43:27.660Z,1013.2
2023-02-11T07:44:28.686Z,1013.2
2023-02-11T07:45:29.659Z,1013.2
2023-02-11T07:46:30.688Z,1013.1
2023-02-11T07:47:31.679Z,1013.1
2023-02-11T07:48:32.658Z,1013.1
2023-02-11T07:49:33.658Z,1013.2
2023-02-11T07:50:34.676Z,1013.1
2023-02-11T07:51:35.697Z,1013.1
2023-02-11T07:52:36.683Z,1013.1
2023-02-11T07:53:37.702Z,1013.1
2023-02-11T07:54:38.705Z,1013.1
2023-02-11T07:55:39.740Z,1013
2023-02-11T07:56:40.840Z,1012.3
2023-02-11T07:57:41.669Z,1012.8
2023-02-11T07:58:42.698Z,1013
2023-02-11T07:59:43.659Z,1013.1
2023-02-11T08:00:44.778Z,1013.1
2023-02-11T08:01:45.763Z,1013.1
2023-02-11T08:02:46.661Z,1013.2
2023-02-11T08:03:47.658Z,1013.2
2023-02-11T08:04:48.671Z,1013.2
2023-02-11T08:05:50.044Z,1013.2
2023-02-11T08:06:50.777Z,1013.2
2023-02-11T08:07:51.612Z,1013.2
2023-02-11T08:08:52.675Z,1013.2
2023-02-11T08:09:53.698Z,1013.2
2023-02-11T08:10:54.712Z,1013.2
2023-02-11T08:11:55.731Z,1013.2
2023-02-11T08:12:56.718Z,1013.2
2023-02-11T08:13:57.715Z,1013.1
2023-02-11T08:14:58.738Z,1013.2
2023-02-11T08:15:59.689Z,1013.2
2023-02-11T08:17:00.740Z,1013.2
2023-02-11T08:18:01.714Z,1013.1
2023-02-11T08:19:02.735Z,1013.1
2023-02-11T08:20:03.690Z,1013.2
2023-02-11T08:21:04.639Z,1013.2
2023-02-11T08:22:05.711Z,1013.3
2023-02-11T08:23:06.673Z,1013.2
2023-02-11T08:24:07.681Z,1013.2
2023-02-11T08:25:08.663Z,1013.3
2023-02-11T08:26:09.934Z,1013.3
2023-02-11T08:27:10.660Z,1013.4
2023-02-11T08:28:11.724Z,1013.3
2023-02-11T08:29:12.707Z,1013.3
2023-02-11T08:30:13.676Z,1013.4
2023-02-11T08:31:14.791Z,1013.4
2023-02-11T08:32:15.757Z,1013.5
2023-02-11T08:33:16.714Z,1013.4
2023-02-11T08:34:17.712Z,1013.4
2023-02-11T08:35:18.780Z,1013.3
2023-02-11T08:36:19.712Z,1013.4
2023-02-11T08:37:20.672Z,1013.4
2023-02-11T08:38:21.685Z,1013.3
2023-02-11T08:39:22.731Z,1013.3
2023-02-11T08:40:23.679Z,1013.3
2023-02-11T08:41:24.986Z,1013.3
2023-02-11T08:42:25.699Z,1012.9
2023-02-11T08:43:26.772Z,1013.2
2023-02-11T08:44:27.733Z,1013.2
2023-02-11T08:45:28.693Z,1013.2
2023-02-11T08:46:29.740Z,1013.1
2023-02-11T08:47:30.792Z,1013.2
2023-02-11T08:48:31.691Z,1013.2
2023-02-11T08:49:32.733Z,1013.2
2023-02-11T08:50:33.775Z,1013.2
2023-02-11T08:51:34.728Z,1013.1
2023-02-11T08:52:35.782Z,1013.1
2023-02-11T08:53:36.785Z,1013.1
2023-02-11T08:54:37.712Z,1013.1
2023-02-11T08:55:38.671Z,1013.2
2023-02-11T08:56:39.752Z,1013.1
2023-02-11T08:57:41.047Z,1013.1
2023-02-11T08:58:41.691Z,1013
2023-02-11T08:59:42.732Z,1013
2023-02-11T09:00:43.722Z,1012.9
2023-02-11T09:01:44.905Z,1013
2023-02-11T09:02:45.677Z,1013
2023-02-11T09:03:46.752Z,1013
2023-02-11T09:04:47.717Z,1012.9
2023-02-11T09:05:48.695Z,1012.8
2023-02-11T09:06:49.731Z,1012.8
2023-02-11T09:07:50.711Z,1012.7
2023-02-11T09:08:51.746Z,1012.8
2023-02-11T09:09:52.659Z,1012.8
2023-02-11T09:10:53.906Z,1012.8
2023-02-11T09:11:54.712Z,1012.8
2023-02-11T09:12:55.776Z,1012.8
2023-02-11T09:13:56.799Z,1012.8
2023-02-11T09:14:57.783Z,1012.7
2023-02-11T09:15:58.753Z,1012.8
2023-02-11T09:16:59.707Z,1012.8
2023-02-11T09:18:00.751Z,1012.9
2023-02-11T09:19:01.813Z,1012.8
2023-02-11T09:20:02.786Z,1012.7
2023-02-11T09:21:03.782Z,1012.7
2023-02-11T09:22:04.720Z,1012.7
2023-02-11T09:23:05.711Z,1012.7
2023-02-11T09:24:06.790Z,1012.7
2023-02-11T09:25:07.757Z,1012.7
2023-02-11T09:26:09.408Z,1012.7
2023-02-11T09:27:09.754Z,1012.7
2023-02-11T09:28:10.930Z,1012.7
2023-02-11T09:29:11.763Z,1012.7
2023-02-11T09:30:12.736Z,1012.6
2023-02-11T09:31:13.987Z,1012.7
2023-02-11T09:32:14.875Z,1012.6
2023-02-11T09:33:16.000Z,1012.7
2023-02-11T09:34:17.720Z,1012.8
2023-02-11T09:35:18.689Z,1012
2023-02-11T09:36:19.719Z,1012.5
2023-02-11T09:37:20.727Z,1012.5
2023-02-11T09:38:21.736Z,1012.6
2023-02-11T09:39:22.776Z,1012.7
2023-02-11T09:40:23.669Z,1012.5
2023-02-11T09:41:25.017Z,1012.4
2023-02-11T09:42:25.722Z,1012.4
2023-02-11T09:43:26.713Z,1012.3
2023-02-11T09:44:27.719Z,1012.3
2023-02-11T09:45:28.716Z,1012.3
2023-02-11T09:46:30.011Z,1012.2
2023-02-11T09:47:30.808Z,1012.3
2023-02-11T09:48:31.709Z,1012.3
2023-02-11T09:49:32.789Z,1012.2
2023-02-11T09:50:33.756Z,1012.2
2023-02-11T09:51:34.794Z,1012.2
2023-02-11T09:52:35.714Z,1012.3
2023-02-11T09:53:36.896Z,1012.2
2023-02-11T09:54:37.756Z,1012.2
2023-02-11T09:55:38.678Z,1012.3
2023-02-11T09:56:39.695Z,1012.2
2023-02-11T09:57:40.732Z,1012.2
2023-02-11T09:58:41.769Z,1012.2
2023-02-11T09:59:42.780Z,1012.2
2023-02-11T10:00:43.763Z,1012.3
2023-02-11T10:01:44.754Z,1012.3
2023-02-11T10:02:45.782Z,1012.4
2023-02-11T10:03:46.717Z,1012.4
2023-02-11T10:04:47.771Z,1012.4
2023-02-11T10:05:48.749Z,1012.4
2023-02-11T10:06:49.718Z,1012.4
2023-02-11T10:07:50.738Z,1012.4
2023-02-11T10:08:51.761Z,1012.4
2023-02-11T10:09:52.862Z,1012.4
2023-02-11T10:10:54.040Z,1012.3
2023-02-11T10:11:54.765Z,1012.3
2023-02-11T10:12:55.798Z,1012.3
2023-02-11T10:13:56.800Z,1012.3
2023-02-11T10:14:57.821Z,1012.2
2023-02-11T10:15:58.824Z,1012.2
2023-02-11T10:16:59.788Z,1012.1
2023-02-11T10:18:00.780Z,1012.1
2023-02-11T10:19:01.810Z,1012.1
2023-02-11T10:20:02.743Z,1012.1
2023-02-11T10:21:03.765Z,1012.1
2023-02-11T10:22:04.723Z,1012.1
2023-02-11T10:23:05.858Z,1012.2
2023-02-11T10:24:06.713Z,1012.3
2023-02-11T10:25:07.821Z,1012.1
2023-02-11T10:26:08.720Z,1012
2023-02-11T10:27:09.784Z,1011.9
2023-02-11T10:28:10.860Z,1011.9
2023-02-11T10:29:11.784Z,1011.9
2023-02-11T10:30:12.830Z,1012
2023-02-11T10:31:13.903Z,1012
2023-02-11T10:32:14.832Z,1012
2023-02-11T10:33:15.812Z,1012
2023-02-11T10:34:16.717Z,1012
2023-02-11T10:35:17.772Z,1012
2023-02-11T10:36:18.714Z,1012
2023-02-11T10:37:19.838Z,1011.9
2023-02-11T10:38:20.797Z,1012
2023-02-11T10:39:21.766Z,1012.1
2023-02-11T10:40:22.760Z,1012.1
2023-02-11T10:41:23.748Z,1012
2023-02-11T10:42:25.177Z,1012
2023-02-11T10:43:26.779Z,1012.1
2023-02-11T10:44:27.783Z,1012
2023-02-11T10:45:28.772Z,1011.9
2023-02-11T10:46:29.881Z,1012
2023-02-11T10:47:30.761Z,1012
2023-02-11T10:48:31.758Z,1011.9
2023-02-11T10:49:32.780Z,1012
2023-02-11T10:50:33.758Z,1011.9
2023-02-11T10:51:34.790Z,1011.9
2023-02-11T10:52:35.784Z,1011.9
2023-02-11T10:53:36.823Z,1011.9
2023-02-11T10:54:37.760Z,1012
2023-02-11T10:55:38.783Z,1012
2023-02-11T10:56:39.700Z,1012
2023-02-11T10:57:40.802Z,1012
2023-02-11T10:58:41.771Z,1012
2023-02-11T10:59:42.808Z,1012
2023-02-11T11:00:43.780Z,1012
2023-02-11T11:01:44.879Z,1012
2023-02-11T11:02:45.778Z,1012.1
2023-02-11T11:03:46.781Z,1012.1
2023-02-11T11:04:47.922Z,1012.1
2023-02-11T11:05:48.789Z,1012.1
2023-02-11T11:06:49.803Z,1012.1
2023-02-11T11:07:53.687Z,1012.1
2023-02-11T11:08:54.760Z,1012.1
2023-02-11T11:09:55.919Z,1012.1
2023-02-11T11:10:56.793Z,1012.1
2023-02-11T11:11:57.799Z,1012.1
2023-02-11T11:13:00.901Z,1011.8
2023-02-11T11:14:01.864Z,1012.1
2023-02-11T11:15:02.843Z,1012.2
2023-02-11T11:16:03.924Z,1012.1
2023-02-11T11:17:04.784Z,1012.1
2023-02-11T11:18:20.456Z,1012.1
2023-02-11T11:19:06.770Z,1012.1
2023-02-11T11:20:07.784Z,1012
2023-02-11T11:21:08.769Z,1011.9
2023-02-11T11:22:10.011Z,1012
2023-02-11T11:23:10.803Z,1011.9
2023-02-11T11:24:11.899Z,1012
2023-02-11T11:25:12.747Z,1012
2023-02-11T11:26:14.404Z,1012.1
2023-02-11T11:27:15.840Z,1012
2023-02-11T11:28:16.811Z,1012
2023-02-11T11:29:17.775Z,1012
2023-02-11T11:30:18.864Z,1012
2023-02-11T11:31:19.904Z,1012
2023-02-11T11:32:20.905Z,1012.1
2023-02-11T11:33:22.003Z,1012
2023-02-11T11:34:22.727Z,1012
2023-02-11T11:35:23.865Z,1012
2023-02-11T11:36:25.238Z,1011.9
2023-02-11T11:37:26.818Z,1011.9
2023-02-11T11:38:27.810Z,1011.9
2023-02-11T11:39:28.821Z,1011.9
2023-02-11T11:40:29.753Z,1011.9
2023-02-11T11:41:31.048Z,1011.9
2023-02-11T11:42:32.772Z,1011.8
2023-02-11T11:43:34.127Z,1011.8
2023-02-11T11:44:36.335Z,1011.8
2023-02-11T11:45:37.843Z,1011.9
2023-02-11T11:46:38.829Z,1012
2023-02-11T11:47:39.793Z,1012.1
2023-02-11T11:48:40.927Z,1012.1
2023-02-11T11:49:41.831Z,1012.1
2023-02-11T11:50:42.806Z,1012
2023-02-11T11:51:43.782Z,1012.1
2023-02-11T11:52:45.283Z,1012.1
2023-02-11T11:53:46.829Z,1012
2023-02-11T11:54:47.812Z,1012
2023-02-11T11:55:48.792Z,1012
2023-02-11T11:56:49.794Z,1011.9
2023-02-11T11:57:51.076Z,1011.9
2023-02-11T11:58:52.792Z,1011.9
2023-02-11T11:59:53.872Z,1011.9
2023-02-11T12:00:54.815Z,1012
2023-02-11T12:01:55.819Z,1011.9
2023-02-11T12:02:56.810Z,1011.9
2023-02-11T12:03:57.792Z,1011.9
2023-02-11T12:04:58.855Z,1011.9
2023-02-11T12:05:59.776Z,1011.9
2023-02-11T12:07:00.783Z,1011.9
2023-02-11T12:08:01.896Z,1011.8
2023-02-11T12:09:02.801Z,1011.8
2023-02-11T12:10:03.841Z,1011.8
2023-02-11T12:11:04.810Z,1011.9
2023-02-11T12:12:05.775Z,1011.8
2023-02-11T12:13:06.775Z,1011.8
2023-02-11T12:14:07.809Z,1011.8
2023-02-11T12:15:08.795Z,1011.8
2023-02-11T12:16:09.931Z,1011.7
2023-02-11T12:17:10.787Z,1011.7
2023-02-11T12:18:11.790Z,1011.7
2023-02-11T12:19:12.831Z,1011.7
2023-02-11T12:20:13.922Z,1011.7
2023-02-11T12:21:14.811Z,1011.7
2023-02-11T12:22:15.818Z,1011.7
2023-02-11T12:23:16.810Z,1011.6
2023-02-11T12:24:17.858Z,1011.6
2023-02-11T12:25:18.794Z,1011.6
2023-02-11T12:26:19.834Z,1011.5
2023-02-11T12:27:20.870Z,1011.5
2023-02-11T12:28:21.864Z,1011.5
2023-02-11T12:29:22.832Z,1011.5
2023-02-11T12:30:23.756Z,1011.6
2023-02-11T12:31:25.414Z,1011.6
2023-02-11T12:32:26.770Z,1011.6
2023-02-11T12:33:27.812Z,1011.6
2023-02-11T12:34:28.833Z,1011.7
2023-02-11T12:35:29.809Z,1011.6
2023-02-11T12:36:30.806Z,1011.6
2023-02-11T12:37:32.118Z,1011.6
2023-02-11T12:38:32.844Z,1011.6
2023-02-11T12:39:33.792Z,1011.6
2023-02-11T12:40:34.892Z,1011.4
2023-02-11T12:41:36.052Z,1011.3
2023-02-11T12:42:37.774Z,1011.4
2023-02-11T12:43:38.838Z,1011.3
2023-02-11T12:44:39.814Z,1011.3
2023-02-11T12:45:40.897Z,1011.4
2023-02-11T12:46:41.821Z,1011.4
2023-02-11T12:47:42.814Z,1011.4
2023-02-11T12:48:43.900Z,1011.4
2023-02-11T12:49:44.759Z,1011.4